Pahrump, Nevada Weather observations

Data are for observation ending at time listed.
 Day   Time    Ave.   Ave.  Ave.  Vector   Max.   Stn.    Total    Solar   Ave.  
  of    of     Air    Rel.  Wind   Wind    Wind   Baro.  Precip.   Rad.    Soil  
Year   Day     Temp.  Hum.  Speed  Dir.    Gust   Pres.                    Temp. 
2016   (PST)    F      %     mph   deg.    mph     mb.     in.     W/m2     F   
------------------------------------------------------------------------------
  38   21:50   48.8    43    1.5   328      2.9   931.0    0.00       0    46.1
  38   22:00   49.0    41    2.2   321      4.1   931.0    0.00       0    46.0
  38   22:10   49.0    41    1.3   341      2.7   931.0    0.00       0    45.9
  38   22:20   48.2    44    1.4   121      2.7   931.1    0.00       0    45.8
  38   22:30   47.0    47    1.1   145      2.7   931.1    0.00       0    45.7
  38   22:40   46.9    47    1.0   154      2.0   931.1    0.00       0    45.6
  38   22:50   46.4    49    2.1   156      3.4   931.1    0.00       0    45.5
  38   23:00   45.7    52    1.8   145      3.1   931.1    0.00       0    45.4
  38   23:10   44.9    54    1.5   127      2.2   931.1    0.00       0    45.3
  38   23:20   44.5    54    1.7   164      2.6   931.1    0.00       0    45.2
  38   23:30   45.5    49    0.9   255      1.8   931.1    0.00       0    45.1
  38   23:40   45.7    49    1.3   200      2.4   931.1    0.00       0    45.0
  38   23:50   46.1    48    0.9   217      3.1   931.1    0.00       0    44.9
  39    0:00   45.8    48    1.4   285      3.8   931.1    0.00       0    44.8
  39    0:10   45.6    49    0.7   119      2.4   931.0    0.00       0    44.7
  39    0:20   45.4    50    1.2   100      2.3   931.0    0.00       0    44.6
  39    0:30   44.1    54    2.9   141      5.2   931.1    0.00       0    44.5
  39    0:40   43.8    54    1.0   115      3.1   931.0    0.00       0    44.5
  39    0:50   43.8    54    1.6    59      3.4   930.9    0.00       0    44.4
  39    1:00   43.4    56    1.7     9      3.5   931.0    0.00       0    44.3
  39    1:10   42.2    59    1.5     9      3.1   931.1    0.00       0    44.2
  39    1:20   41.1    61    1.1   344      2.6   931.1    0.00       0    44.1
  39    1:30   41.3    62    2.4    32      4.6   931.1    0.00       0    44.0
  39    1:40   42.1    60    2.5    32      4.4   931.2    0.00       0    43.9
  39    1:50   43.1    56    3.4   166      5.1   931.3    0.00       0    43.8
  39    2:00   43.8    54    3.4   167      5.8   931.3    0.00       0    43.7
  39    2:10   44.2    52    2.4   182      4.0   931.3    0.00       0    43.7
  39    2:20   43.7    53    2.3   189      3.9   931.3    0.00       0    43.6
  39    2:30   43.0    55    2.8   172      4.0   931.3    0.00       0    43.5
  39    2:40   42.6    56    2.8   163      4.5   931.3    0.00       0    43.4
  39    2:50   42.5    56    2.9   171      4.7   931.3    0.00       0    43.4
  39    3:00   42.3    56    1.5   177      3.2   931.3    0.00       0    43.3
  39    3:10   40.9    60    1.8    30      5.3   931.3    0.00       0    43.3
  39    3:20   40.0    63    1.5   114      2.9   931.2    0.00       0    43.2
  39    3:30   40.0    63    1.8   172      3.3   931.1    0.00       0    43.1
  39    3:40   40.8    60    2.2   132      3.9   931.0    0.00       0    43.0
  39    3:50   40.5    61    3.0   134      3.9   931.0    0.00       0    42.9
  39    4:00   40.4    61    1.7   130      2.8   930.9    0.00       0    42.8
  39    4:10   40.6    60    2.7   116      3.7   930.9    0.00       0    42.8
  39    4:20   39.9    62    2.8   168      5.5   930.9    0.00       0    42.7
  39    4:30   39.9    61    3.2   155      5.0   930.8    0.00       0    42.6
  39    4:40   40.2    60    2.8   215      4.2   930.8    0.00       0    42.5
  39    4:50   38.6    65    1.4   133      2.2   930.8    0.00       0    42.4
  39    5:00   39.3    63    2.8   134      5.0   930.7    0.00       0    42.4
  39    5:10   40.3    60    1.7   115      5.1   930.7    0.00       0    42.3
  39    5:20   39.6    61    0.9    63      2.3   930.8    0.00       0    42.2
  39    5:30   39.1    63    1.4   175      2.5   930.8    0.00       0    42.1
  39    5:40   39.6    61    1.9   151      3.3   930.9    0.00       0    42.0
  39    5:50   41.1    56    3.7   157      5.6   930.9    0.00       0    41.9
  39    6:00   42.1    54    3.0   137      4.4   931.0    0.00       0    41.9
  39    6:10   41.2    56    1.1   132      4.0   931.2    0.00       0    41.8
  39    6:20   39.9    59    1.9    70      2.8   931.2    0.00       0    41.8
  39    6:30   39.1    62    1.4   252      2.9   931.3    0.00       0    41.7
  39    6:40   37.6    65    0.8   324      3.2   931.4    0.00       2    41.6
  39    6:50   36.5    69    2.4    23      3.7   931.3    0.00       3    41.6
  39    7:00   36.9    68    1.2    50      3.8   931.4    0.00       2    41.5
  39    7:10   38.1    66    0.9   324      3.9   931.4    0.00       1    41.4
  39    7:20   41.1    60    1.4    79      1.9   931.4    0.00       2    41.3
  39    7:30   45.0    52    0.9    92      2.3   931.5    0.00       6    41.3
  39    7:40   47.0    49    0.8   258      2.0   931.7    0.00      14    41.3
  39    7:50   49.0    46    0.3    63      1.0   931.9    0.00       2    41.3
  39    8:00   50.8    43    0.5   188      1.5   932.2    0.00       1    41.4
  39    8:10   51.8    42    0.7   247      1.8   932.5    0.00       2    41.6
  39    8:20   52.4    40    1.2   305      2.3   932.8    0.00       1    41.8
  39    8:30   51.3    41    1.2     7      2.9   933.2    0.00       0    42.2
  39    8:40   50.8    41    2.1    54      3.6   933.7    0.00       0    42.7
  39    8:50   53.5    37    0.8   106      1.9   934.0    0.00       0    43.2
  39    9:00   56.0    33    1.8   121      2.8   934.3    0.00       0    43.7
  39    9:10   57.0    31    1.3   122      2.3   934.7    0.00       0    44.3
  39    9:20   58.1    29    0.8   121      2.3   934.9    0.00       0    44.8
  39    9:30   58.3    29    0.3    79      1.6   935.2    0.00       0    45.3
  39    9:40   58.7    29    1.1   103      2.3   935.5    0.00       0    45.6
  39    9:50   58.2    29    0.7    50      2.1   935.6    0.00       0    45.7
  39   10:00   58.1    29    1.4    38      2.8   935.5    0.00       0    45.8
  39   10:10   57.6    30    1.6    45      4.0   935.5    0.00       0    45.8
  39   10:20   57.4    30    1.7    54      4.7   935.6    0.00       0    45.8
  39   10:30   58.2    29    1.3    59      2.9   935.6    0.00       0    45.7
  39   10:40   58.2    29    2.0    51      3.2   935.4    0.00       0    45.7
  39   10:50   59.5    28    1.7    93      3.3   935.3    0.00       0    45.7
  39   11:00   60.3    27    1.4    46      3.7   935.1    0.00       0    45.8
  39   11:10   60.9    26    1.2    42      3.9   935.1    0.00       0    45.8
  39   11:20   62.0    25    1.5    13      5.2   935.1    0.00       0    45.9
  39   11:30   62.4    25    1.3   345      3.1   935.1    0.00       0    46.1
  39   11:40   63.6    24    1.5    36      4.2   934.9    0.00       0    46.6
  39   11:50   63.5    24    1.8   320      3.7   934.7    0.00       0    47.4
  39   12:00   63.9    22    3.3   323      6.4   934.5    0.00       0    48.4
  39   12:10   64.8    22    1.1    28      2.9   934.1    0.00       0    49.5
  39   12:20   65.6    20    1.3   335      3.8   934.0    0.00       0    50.5
  39   12:30   66.8    19    1.7   286      5.3   934.1    0.00       0    51.6
  39   12:40   66.1    20    1.5   312      6.4   934.0    0.00       0    52.5
  39   12:50   66.3    20    1.8   313      6.9   933.9    0.00       0    53.4
  39   13:00   66.3    20    1.9   342      4.6   933.7    0.00       0    54.3
  39   13:10   66.4    20    1.7    40      3.9   933.4    0.00       0    55.0
  39   13:20   66.9    18    1.9    52      4.2   933.2    0.00       0    55.8
  39   13:30   67.2    18    1.8    84      4.7   932.9    0.00       0    56.3
  39   13:40   67.4    17    1.7    38      4.2   932.7    0.00       0    56.4
  39   13:50   67.5    18    1.8   313      5.4   932.4    0.00       0    56.3
  39   14:00   67.5    17    1.7    48      3.4   932.2    0.00       0    56.0
  39   14:10   67.3    17    2.3    59      4.7   932.0    0.00       0    55.7
  39   14:20   67.3    17    2.9    85      5.4   931.9    0.00       0    55.3
  39   14:30   67.6    16    3.3    95      5.3   931.7    0.00       0    55.0
  39   14:40   67.9    16    2.0   174      3.9   931.6    0.00       0    54.7
  39   14:50   68.1    16    1.6    91      3.5   931.4    0.00       0    54.4
  39   15:00   68.2    17    1.9    75      3.3   931.3    0.00       0    54.2
  39   15:10   68.5    17    2.0    93      3.9   931.3    0.00       0    54.0
  39   15:20   68.8    17    1.8   104      4.5   931.3    0.00       0    53.8
  39   15:30   69.2    17    1.3   144      3.1   931.2    0.00       0    53.6
  39   15:40   69.0    17    1.3   132      3.1   931.2    0.00       0    53.4
  39   15:50   68.8    17    0.9   122      2.6   931.1    0.00       0    53.2
  39   16:00   68.9    17    1.0   278      2.0   931.1    0.00       0    53.1
  39   16:10   69.0    17    1.0    24      3.2   931.1    0.00       0    52.9
  39   16:20   68.8    17    2.3   339      3.9   931.0    0.00       0    52.8
  39   16:30   68.6    17    1.9     4      3.2   931.0    0.00       0    52.6
  39   16:40   68.1    18    1.3   355      2.3   931.0    0.00       0    52.5
  39   16:50   67.5    18    0.5   273      1.6   930.9    0.00       0    52.3
  39   17:00   66.6    21    1.0   263      1.8   930.8    0.00       0    52.2
  39   17:10   66.1    21    0.3   210      1.3   930.7    0.00       0    52.0
  39   17:20   65.2    21    0.9   225      1.4   930.5    0.00       0    51.8
  39   17:30   63.7    23    1.2   181      2.9   930.4    0.00       0    51.6
  39   17:40   64.0    24    1.2   167      2.1   930.3    0.00       0    51.5
  39   17:50   62.7    28    1.9   115      3.3   930.4    0.00       0    51.3
  39   18:00   60.7    31    2.6   122      5.2   930.4    0.00       0    51.1
  39   18:10   60.3    31    1.7   126      4.1   930.3    0.00       0    51.0
  39   18:20   59.4    32    1.6   143      4.3   930.3    0.00       0    50.8
  39   18:30   59.0    32    1.2    59      4.2   930.2    0.00       0    50.6
  39   18:40   57.8    32    2.3    34      3.8   930.2    0.00       0    50.5
  39   18:50   58.4    31    1.3   125      3.7   930.1    0.00       0    50.3
  39   19:00   57.1    33    0.9   188      2.3   930.1    0.00       0    50.2
  39   19:10   56.2    34    0.4   149      1.6   930.0    0.00       0    50.1
  39   19:20   55.7    34    0.3   118      1.8   930.0    0.00       0    50.0
  39   19:30   55.3    35    1.8   339      3.1   930.1    0.00       0    49.8
  39   19:40   54.6    37    2.0    11      3.1   930.1    0.00       0    49.7
  39   19:50   54.0    37    0.6    64      2.6   930.1    0.00       0    49.5
  39   20:00   53.5    38    1.0    34      2.3   930.2    0.00       0    49.4
  39   20:10   52.7    40    1.2    65      2.9   930.2    0.00       0    49.2
  39   20:20   51.5    43    0.7   284      3.2   930.2    0.00       0    49.1
  39   20:30   50.1    46    0.4   317      1.9   930.1    0.00       0    48.9
  39   20:40   49.8    45    0.2   185      1.4   930.1    0.00       0    48.8
  39   20:50   49.8    47    1.8   142      3.1   930.0    0.00       0    48.6
  39   21:00   49.5    48    1.1   324      2.3   930.0    0.00       0    48.5
  39   21:10   49.2    48    1.0    92      2.1   930.1    0.00       0    48.3
  39   21:20   48.9    48    0.7    93      1.4   930.0    0.00       0    48.2
  39   21:30   48.7    48    1.9   107      3.4   930.1    0.00       0    48.1
  39   21:40   48.9    48    1.9   118      3.2   930.1    0.00       0    48.0

Return to Pahrump, Nevada graphs page.


Western Regional Climate Center,wrcc@dri.edu